createdAt,value
2022-08-28T00:02:03.367Z,11.35
2022-08-28T00:08:05.980Z,10.20
2022-08-28T00:14:09.968Z,13.85
2022-08-28T00:20:13.913Z,13.35
2022-08-28T00:26:35.629Z,10.40
2022-08-28T00:32:37.386Z,13.05
2022-08-28T00:38:39.094Z,11.60
2022-08-28T00:44:44.647Z,11.95
2022-08-28T00:51:05.165Z,11.57
2022-08-28T00:57:13.237Z,11.93
2022-08-28T01:03:15.029Z,12.55
2022-08-28T01:09:20.937Z,11.57
2022-08-28T01:15:29.749Z,11.73
2022-08-28T01:21:43.501Z,11.45
2022-08-28T01:27:45.891Z,16.03
2022-08-28T01:33:48.582Z,12.98
2022-08-28T01:39:50.400Z,11.35
2022-08-28T01:45:56.131Z,17.35
2022-08-28T01:51:58.320Z,12.63
2022-08-28T01:58:00.073Z,13.10
2022-08-28T02:04:04.452Z,17.45
2022-08-28T02:10:08.575Z,12.38
2022-08-28T02:16:11.009Z,11.05
2022-08-28T02:22:13.607Z,9.98
2022-08-28T02:28:15.340Z,16.17
2022-08-28T02:34:17.045Z,11.18
2022-08-28T02:40:21.506Z,13.43
2022-08-28T02:46:23.504Z,8.77
2022-08-28T02:52:25.328Z,11.13
2022-08-28T02:58:27.299Z,12.80
2022-08-28T03:04:29.056Z,18.88
2022-08-28T03:10:30.999Z,11.15
2022-08-28T03:16:34.159Z,12.10
2022-08-28T03:22:54.246Z,9.05
2022-08-28T03:28:57.665Z,15.00
2022-08-28T03:35:02.008Z,13.70
2022-08-28T03:41:03.844Z,10.25
2022-08-28T03:47:06.125Z,14.10
2022-08-28T03:53:07.853Z,11.07
2022-08-28T03:59:09.564Z,11.05
2022-08-28T04:05:11.897Z,12.02
2022-08-28T04:11:13.742Z,11.40
2022-08-28T04:17:16.169Z,11.55
2022-08-28T04:23:17.916Z,8.02
2022-08-28T04:29:19.740Z,10.93
2022-08-28T04:35:21.506Z,10.75
2022-08-28T04:41:23.213Z,10.18
2022-08-28T04:47:25.209Z,12.07
2022-08-28T04:53:27.436Z,11.23
2022-08-28T04:59:29.787Z,9.00
2022-08-28T05:05:31.935Z,13.18
2022-08-28T05:11:35.134Z,17.58
2022-08-28T05:17:37.057Z,9.77
2022-08-28T05:23:38.940Z,11.52
2022-08-28T05:29:40.656Z,14.95
2022-08-28T05:35:44.719Z,8.98
2022-08-28T05:41:47.232Z,9.18
2022-08-28T05:47:49.208Z,12.07
2022-08-28T05:53:51.051Z,13.05
2022-08-28T05:59:53.672Z,13.13
2022-08-28T06:05:55.993Z,9.68
2022-08-28T06:12:01.765Z,14.13
2022-08-28T06:18:03.907Z,12.30
2022-08-28T06:24:06.202Z,10.63
2022-08-28T06:30:08.905Z,8.25
2022-08-28T06:36:11.321Z,10.15
2022-08-28T06:42:13.117Z,11.00
2022-08-28T06:48:17.777Z,10.88
2022-08-28T06:54:22.807Z,14.18
2022-08-28T07:00:25.257Z,13.05
2022-08-28T07:06:30.497Z,9.43
2022-08-28T07:12:32.219Z,9.15
2022-08-28T07:18:34.222Z,10.82
2022-08-28T07:24:36.152Z,10.68
2022-08-28T07:30:37.888Z,7.32
2022-08-28T07:36:41.372Z,9.30
2022-08-28T07:43:02.024Z,8.80
2022-08-28T07:49:04.649Z,8.95
2022-08-28T07:55:08.705Z,10.18
2022-08-28T08:01:11.970Z,11.75
2022-08-28T08:07:14.419Z,10.87
2022-08-28T08:13:16.126Z,7.60
2022-08-28T08:19:18.866Z,10.90
2022-08-28T08:25:20.543Z,9.65
2022-08-28T08:31:26.634Z,7.78
2022-08-28T08:37:28.494Z,9.65
2022-08-28T08:43:34.067Z,10.32
2022-08-28T08:49:40.579Z,6.47
2022-08-28T08:55:48.065Z,6.43
2022-08-28T09:02:08.522Z,6.93
2022-08-28T09:08:21.418Z,8.57
2022-08-28T09:14:33.555Z,13.93
2022-08-28T09:20:35.331Z,6.18
2022-08-28T09:26:37.308Z,7.07
2022-08-28T09:32:46.766Z,10.40
2022-08-28T09:39:08.824Z,15.35
2022-08-28T09:45:20.567Z,9.48
2022-08-28T09:51:22.246Z,7.72
2022-08-28T09:57:24.000Z,6.35
2022-08-28T10:03:49.193Z,12.20
2022-08-28T10:10:17.780Z,7.82
2022-08-28T10:16:31.901Z,9.35
2022-08-28T10:22:56.398Z,6.63
2022-08-28T10:29:22.781Z,10.10
2022-08-28T10:35:53.027Z,6.38
2022-08-28T10:42:02.010Z,7.93
2022-08-28T10:48:17.475Z,7.60
2022-08-28T10:54:44.557Z,6.40
2022-08-28T11:00:47.146Z,4.35
2022-08-28T11:06:54.877Z,5.50
2022-08-28T11:12:56.956Z,5.72
2022-08-28T11:19:09.828Z,6.78
2022-08-28T11:25:26.369Z,8.63
2022-08-28T11:31:37.641Z,6.25
2022-08-28T11:37:47.829Z,5.03
2022-08-28T11:44:14.492Z,8.27
2022-08-28T11:50:25.951Z,7.38
2022-08-28T11:56:53.018Z,8.75
2022-08-28T12:03:12.018Z,4.32
2022-08-28T12:09:25.852Z,9.30
2022-08-28T12:21:30.953Z,5.40
2022-08-28T12:27:38.363Z,6.78
2022-08-28T12:33:40.028Z,4.55
2022-08-28T12:39:42.852Z,7.47
2022-08-28T12:45:57.348Z,4.57
2022-08-28T12:52:20.130Z,6.47
2022-08-28T12:58:37.296Z,9.82
2022-08-28T13:05:03.691Z,6.15
2022-08-28T13:11:07.309Z,4.53
2022-08-28T13:17:10.153Z,4.85
2022-08-28T13:23:29.618Z,6.07
2022-08-28T13:29:31.610Z,6.30
2022-08-28T13:35:36.896Z,4.95
2022-08-28T13:41:39.012Z,7.03
2022-08-28T13:47:41.313Z,5.15
2022-08-28T13:53:43.142Z,5.40
2022-08-28T13:59:45.432Z,6.60
2022-08-28T14:05:47.148Z,4.55
2022-08-28T14:11:49.718Z,4.20
2022-08-28T14:17:51.440Z,6.87
2022-08-28T14:23:53.385Z,4.10
2022-08-28T14:29:55.201Z,7.00
2022-08-28T14:35:57.239Z,4.88
2022-08-28T14:41:59.444Z,5.10
2022-08-28T14:48:01.146Z,5.00
2022-08-28T14:54:03.375Z,5.40
2022-08-28T15:00:05.739Z,6.38
2022-08-28T15:06:09.829Z,8.30
2022-08-28T15:12:11.825Z,4.50
2022-08-28T15:18:14.059Z,5.78
2022-08-28T15:24:18.371Z,6.00
2022-08-28T15:30:20.277Z,5.25
2022-08-28T15:36:23.039Z,5.43
2022-08-28T15:42:24.959Z,4.63
2022-08-28T15:48:26.686Z,6.50
2022-08-28T15:54:28.481Z,3.45
2022-08-28T16:00:30.198Z,6.50
2022-08-28T16:06:32.031Z,4.97
2022-08-28T16:12:35.109Z,7.25
2022-08-28T16:18:37.151Z,4.68
2022-08-28T16:24:39.031Z,6.40
2022-08-28T16:30:43.762Z,4.82
2022-08-28T16:36:48.228Z,5.68
2022-08-28T16:42:51.783Z,7.38
2022-08-28T16:48:55.445Z,4.57
2022-08-28T16:54:57.320Z,4.22
2022-08-28T17:01:00.021Z,4.90
2022-08-28T17:07:02.629Z,5.40
2022-08-28T17:13:04.446Z,6.38
2022-08-28T17:19:06.153Z,7.85
2022-08-28T17:25:13.605Z,6.43
2022-08-28T17:31:15.714Z,7.45
2022-08-28T17:37:19.064Z,5.40
2022-08-28T17:43:21.237Z,4.18
2022-08-28T17:49:23.029Z,8.15
2022-08-28T17:55:24.754Z,6.32
2022-08-28T18:01:27.172Z,5.65
2022-08-28T18:07:28.962Z,6.78
2022-08-28T18:13:31.849Z,9.02
2022-08-28T18:19:33.587Z,8.57
2022-08-28T18:25:50.959Z,7.47
2022-08-28T18:31:52.947Z,9.63
2022-08-28T18:37:54.833Z,6.05
2022-08-28T18:43:57.629Z,10.40
2022-08-28T18:50:06.492Z,6.75
2022-08-28T18:56:08.697Z,6.90
2022-08-28T19:02:12.912Z,8.18
2022-08-28T19:08:15.023Z,8.45
2022-08-28T19:14:16.865Z,10.18
2022-08-28T19:20:20.639Z,10.23
2022-08-28T19:26:22.443Z,10.38
2022-08-28T19:32:27.182Z,9.18
2022-08-28T19:38:29.490Z,8.10
2022-08-28T19:44:32.621Z,11.15
2022-08-28T19:50:34.499Z,6.57
2022-08-28T19:56:37.306Z,11.25
2022-08-28T20:02:39.132Z,8.00
2022-08-28T20:08:40.961Z,8.40
2022-08-28T20:14:42.707Z,6.75
2022-08-28T20:20:46.265Z,7.72
2022-08-28T20:26:49.256Z,8.95
2022-08-28T20:32:51.380Z,7.10
2022-08-28T20:38:53.454Z,6.47
2022-08-28T20:44:57.315Z,6.97
2022-08-28T20:50:59.836Z,8.82
2022-08-28T20:57:05.367Z,8.38
2022-08-28T21:03:12.054Z,7.88
2022-08-28T21:09:15.273Z,7.57
2022-08-28T21:15:17.050Z,10.07
2022-08-28T21:21:18.816Z,7.15
2022-08-28T21:27:22.214Z,14.93
2022-08-28T21:33:24.720Z,8.85
2022-08-28T21:39:26.451Z,5.63
2022-08-28T21:45:28.317Z,8.35
2022-08-28T21:51:30.226Z,7.32
2022-08-28T21:57:32.235Z,6.57
2022-08-28T22:03:34.111Z,10.45
2022-08-28T22:09:35.823Z,8.18
2022-08-28T22:15:43.898Z,7.22
2022-08-28T22:22:05.219Z,7.10
2022-08-28T22:28:07.677Z,6.75
2022-08-28T22:34:10.247Z,6.18
2022-08-28T22:40:13.421Z,6.95
2022-08-28T22:46:15.727Z,9.27
2022-08-28T22:52:17.831Z,7.10
2022-08-28T22:58:19.566Z,5.25
2022-08-28T23:04:21.330Z,5.00
2022-08-28T23:10:36.934Z,9.07
2022-08-28T23:16:45.407Z,8.57
2022-08-28T23:22:47.425Z,7.50
2022-08-28T23:28:49.202Z,6.60
2022-08-28T23:34:51.009Z,7.72
2022-08-28T23:40:52.765Z,5.78
2022-08-28T23:46:54.500Z,7.07
2022-08-28T23:52:58.031Z,6.95
2022-08-28T23:59:00.454Z,10.02
